createdAt,value
2022-10-19T00:00:26.977Z,513.8
2022-10-19T00:01:29.440Z,513.3
2022-10-19T00:02:31.888Z,513.6
2022-10-19T00:03:34.459Z,513.4
2022-10-19T00:04:36.659Z,513.7
2022-10-19T00:05:38.845Z,513.3
2022-10-19T00:06:41.030Z,513.3
2022-10-19T00:07:43.509Z,513.1
2022-10-19T00:08:45.698Z,513
2022-10-19T00:09:47.631Z,512.9
2022-10-19T00:10:49.830Z,513.2
2022-10-19T00:11:52.300Z,513.5
2022-10-19T00:12:54.227Z,513.5
2022-10-19T00:13:56.707Z,513.8
2022-10-19T00:14:58.909Z,513.4
2022-10-19T00:16:01.187Z,514
2022-10-19T00:17:03.661Z,513.6
2022-10-19T00:18:05.907Z,513.5
2022-10-19T00:19:08.095Z,513.6
2022-10-19T00:20:10.295Z,513.4
2022-10-19T00:21:12.493Z,513.5
2022-10-19T00:22:16.198Z,513.1
2022-10-19T00:23:18.114Z,513.3
2022-10-19T00:24:20.046Z,512.8
2022-10-19T00:25:22.259Z,513.2
2022-10-19T00:26:24.731Z,512.9
2022-10-19T00:27:26.967Z,513
2022-10-19T00:28:29.851Z,513.3
2022-10-19T00:29:31.786Z,513.2
2022-10-19T00:30:34.003Z,513.4
2022-10-19T00:31:36.270Z,513.3
2022-10-19T00:32:38.742Z,513.7
2022-10-19T00:33:40.941Z,513.3
2022-10-19T00:34:43.141Z,513.6
2022-10-19T00:35:45.611Z,513.5
2022-10-19T00:36:47.804Z,513.7
2022-10-19T00:37:49.983Z,513.9
2022-10-19T00:38:52.469Z,513.7
2022-10-19T00:39:54.684Z,513.8
2022-10-19T00:40:56.883Z,513.6
2022-10-19T00:41:58.810Z,513.5
2022-10-19T00:43:01.281Z,513.9
2022-10-19T00:44:03.751Z,513.9
2022-10-19T00:45:05.674Z,513.5
2022-10-19T00:46:08.174Z,513.6
2022-10-19T00:47:10.735Z,513.8
2022-10-19T00:48:12.941Z,513.7
2022-10-19T00:49:14.567Z,513.6
2022-10-19T00:50:17.036Z,513.9
2022-10-19T00:51:19.506Z,514.1
2022-10-19T00:52:21.988Z,514
2022-10-19T00:53:24.184Z,514.3
2022-10-19T00:54:26.382Z,514.2
2022-10-19T00:55:28.576Z,514.3
2022-10-19T00:56:30.502Z,514.4
2022-10-19T00:57:32.701Z,514.3
2022-10-19T00:58:35.189Z,514.2
2022-10-19T00:59:37.668Z,514.1
2022-10-19T01:00:39.986Z,514.7
2022-10-19T01:01:42.269Z,514.5
2022-10-19T01:02:44.830Z,514.4
2022-10-19T01:03:47.294Z,514.4
2022-10-19T01:04:49.807Z,514.5
2022-10-19T01:05:52.285Z,514.4
2022-10-19T01:06:54.572Z,514.4
2022-10-19T01:07:56.748Z,514.7
2022-10-19T01:08:58.686Z,514.5
2022-10-19T01:10:01.165Z,514.5
2022-10-19T01:11:03.358Z,514.6
2022-10-19T01:12:05.276Z,514.6
2022-10-19T01:13:07.471Z,514.8
2022-10-19T01:14:09.380Z,514.9
2022-10-19T01:15:11.019Z,515
2022-10-19T01:16:13.208Z,515.3
2022-10-19T01:17:15.709Z,515
2022-10-19T01:18:17.989Z,515
2022-10-19T01:19:20.461Z,515.1
2022-10-19T01:20:22.650Z,514.9
2022-10-19T01:21:25.123Z,515.1
2022-10-19T01:22:27.596Z,515
2022-10-19T01:23:29.505Z,515
2022-10-19T01:24:32.643Z,515
2022-10-19T01:25:36.037Z,515.5
2022-10-19T01:26:38.510Z,515.4
2022-10-19T01:27:41.003Z,515.8
2022-10-19T01:28:43.883Z,516.1
2022-10-19T01:29:46.371Z,515.8
2022-10-19T01:30:48.549Z,516.1
2022-10-19T01:31:51.027Z,516
2022-10-19T01:32:53.519Z,516.2
2022-10-19T01:34:57.953Z,516.2
2022-10-19T01:35:59.869Z,516.5
2022-10-19T01:37:02.066Z,516.3
2022-10-19T01:38:03.979Z,516.3
2022-10-19T01:39:06.175Z,516.3
2022-10-19T01:40:08.643Z,516.4
2022-10-19T01:41:10.857Z,516.2
2022-10-19T01:42:12.748Z,516.2
2022-10-19T01:43:14.937Z,516.3
2022-10-19T01:44:17.122Z,516.3
2022-10-19T01:45:19.314Z,516.5
2022-10-19T01:46:21.780Z,516.4
2022-10-19T01:47:24.336Z,516.7
2022-10-19T01:48:26.873Z,516.8
2022-10-19T01:49:29.423Z,516.9
2022-10-19T01:50:31.890Z,516.8
2022-10-19T01:51:34.397Z,516.5
2022-10-19T01:52:37.551Z,516.6
2022-10-19T01:53:40.031Z,516.7
2022-10-19T01:54:42.232Z,516.6
2022-10-19T01:55:44.429Z,516.6
2022-10-19T01:56:46.894Z,516.3
2022-10-19T01:57:49.083Z,516.3
2022-10-19T01:58:51.559Z,516.3
2022-10-19T01:59:54.035Z,516.3
2022-10-19T02:00:57.165Z,516.7
2022-10-19T02:01:59.705Z,516.3
2022-10-19T02:03:02.186Z,516.4
2022-10-19T02:04:04.401Z,516.3
2022-10-19T02:05:06.951Z,516.4
2022-10-19T02:06:09.415Z,516.2
2022-10-19T02:07:11.609Z,516.1
2022-10-19T02:08:14.096Z,516.2
2022-10-19T02:09:16.287Z,516.2
2022-10-19T02:10:18.776Z,516.4
2022-10-19T02:11:20.969Z,516
2022-10-19T02:12:23.442Z,516.1
2022-10-19T02:13:26.045Z,516.2
2022-10-19T02:14:28.516Z,516.4
2022-10-19T02:15:30.982Z,516
2022-10-19T02:16:33.181Z,516
2022-10-19T02:17:35.384Z,516.1
2022-10-19T02:18:37.858Z,516.4
2022-10-19T02:19:40.342Z,516.3
2022-10-19T02:20:42.605Z,516.6
2022-10-19T02:21:44.790Z,516.2
2022-10-19T02:22:46.716Z,516.6
2022-10-19T02:24:53.916Z,517
2022-10-19T02:25:56.102Z,517
2022-10-19T02:26:58.302Z,516.6
2022-10-19T02:28:00.764Z,516.7
2022-10-19T02:29:02.970Z,517.1
2022-10-19T02:30:05.438Z,516.7
2022-10-19T02:31:07.908Z,516.6
2022-10-19T02:32:10.369Z,516.9
2022-10-19T02:33:12.846Z,516.8
2022-10-19T02:34:15.047Z,517
2022-10-19T02:35:17.536Z,517.1
2022-10-19T02:36:20.085Z,517.4
2022-10-19T02:38:27.263Z,517.4
2022-10-19T02:39:29.755Z,517.5
2022-10-19T02:40:32.235Z,517.8
2022-10-19T02:41:34.704Z,517.9
2022-10-19T02:42:37.990Z,517.7
2022-10-19T02:43:39.885Z,518
2022-10-19T02:44:41.826Z,517.8
2022-10-19T02:45:43.727Z,517.9
2022-10-19T02:46:45.678Z,518
2022-10-19T02:47:47.862Z,517.9
2022-10-19T02:48:50.338Z,518.2
2022-10-19T02:49:52.814Z,518
2022-10-19T02:50:55.318Z,518.4
2022-10-19T02:51:57.870Z,518.2
2022-10-19T02:53:00.076Z,517.9
2022-10-19T02:55:06.978Z,518.2
2022-10-19T02:56:09.454Z,518.3
2022-10-19T02:57:11.922Z,518
2022-10-19T02:58:14.415Z,518.2
2022-10-19T02:59:16.897Z,518.5
2022-10-19T03:00:19.362Z,518.4
2022-10-19T03:01:22.116Z,518.6
2022-10-19T03:02:24.292Z,518.3
2022-10-19T03:03:26.775Z,518.3
2022-10-19T03:04:28.972Z,518.7
2022-10-19T03:05:31.450Z,518.4
2022-10-19T03:06:33.932Z,518.5
2022-10-19T03:07:38.272Z,518.7
2022-10-19T03:08:40.461Z,518.9
2022-10-19T03:09:42.946Z,518.6
2022-10-19T03:10:45.409Z,518.4
2022-10-19T03:11:47.879Z,518.7
2022-10-19T03:12:50.356Z,518.8
2022-10-19T03:13:52.560Z,518.5
2022-10-19T03:14:55.030Z,518.5
2022-10-19T03:15:57.518Z,518.4
2022-10-19T03:16:59.729Z,518.6
2022-10-19T03:18:02.218Z,518.5
2022-10-19T03:19:04.399Z,518.6
2022-10-19T03:20:06.300Z,518.4
2022-10-19T03:21:07.925Z,518.6
2022-10-19T03:22:10.162Z,518.9
2022-10-19T03:23:12.745Z,518.8
2022-10-19T03:24:14.952Z,518.9
2022-10-19T03:25:17.433Z,519.2
2022-10-19T03:26:19.639Z,519.3
2022-10-19T03:27:22.150Z,519.3
2022-10-19T03:28:24.326Z,519.2
2022-10-19T03:29:26.795Z,519.6
2022-10-19T03:30:28.993Z,519.4
2022-10-19T03:31:31.472Z,519.5
2022-10-19T03:32:33.645Z,519.5
2022-10-19T03:33:35.842Z,519.3
2022-10-19T03:34:38.049Z,520.1
2022-10-19T03:35:40.587Z,519.9
2022-10-19T03:36:42.244Z,520
2022-10-19T03:37:44.734Z,519.7
2022-10-19T03:38:47.029Z,520.1
2022-10-19T03:39:48.947Z,519.5
2022-10-19T03:40:51.135Z,519.8
2022-10-19T03:41:53.332Z,519.7
2022-10-19T03:42:55.809Z,519.7
2022-10-19T03:45:00.978Z,519.8
2022-10-19T03:46:03.438Z,520
2022-10-19T03:47:05.914Z,519.7
2022-10-19T03:48:08.101Z,519.9
2022-10-19T03:49:10.571Z,520
2022-10-19T03:50:13.048Z,519.8
2022-10-19T03:51:15.233Z,520
2022-10-19T03:52:17.705Z,520.1
2022-10-19T03:53:20.196Z,520.3
2022-10-19T03:55:27.759Z,520.7
2022-10-19T03:56:30.216Z,520.6
2022-10-19T03:57:34.554Z,520.7
2022-10-19T03:58:37.241Z,520.9
2022-10-19T03:59:39.496Z,521
2022-10-19T04:00:42.246Z,520.8
2022-10-19T04:01:44.724Z,520.9
2022-10-19T04:02:47.257Z,520.6
2022-10-19T04:03:49.453Z,521.1
2022-10-19T04:04:51.921Z,521.3
2022-10-19T04:05:54.391Z,521.1
2022-10-19T04:06:56.587Z,520.9
2022-10-19T04:07:58.510Z,521.2
2022-10-19T04:09:01.000Z,521
2022-10-19T04:10:03.471Z,521.1
2022-10-19T04:11:05.462Z,521.1
2022-10-19T04:12:07.925Z,521.1
2022-10-19T04:13:10.397Z,521.1
2022-10-19T04:15:18.070Z,521
2022-10-19T04:16:20.274Z,521.1
2022-10-19T04:17:22.477Z,521.1
2022-10-19T04:18:24.938Z,521.1
2022-10-19T04:19:27.408Z,521.4
2022-10-19T04:20:29.882Z,521.2
2022-10-19T04:21:32.354Z,521
2022-10-19T04:22:34.274Z,521
2022-10-19T04:23:36.743Z,521.2
2022-10-19T04:24:38.950Z,521
2022-10-19T04:25:41.420Z,521.1
2022-10-19T04:26:43.988Z,521
2022-10-19T04:27:46.453Z,521
2022-10-19T04:28:48.471Z,521.3
2022-10-19T04:29:50.737Z,521.7
2022-10-19T04:30:53.227Z,521.8
2022-10-19T04:31:55.713Z,522
2022-10-19T04:32:57.625Z,521.8
2022-10-19T04:34:00.121Z,521.9
2022-10-19T04:35:02.604Z,522.2
2022-10-19T04:36:05.076Z,522.3
2022-10-19T04:37:06.990Z,522.1
2022-10-19T04:38:09.464Z,521.8
2022-10-19T04:39:11.655Z,521.8
2022-10-19T04:41:18.841Z,522
2022-10-19T04:42:21.399Z,521.9
2022-10-19T04:43:23.590Z,521.7
2022-10-19T04:44:26.300Z,522.4
2022-10-19T04:45:28.571Z,522.4
2022-10-19T04:46:31.079Z,522.3
2022-10-19T04:47:34.967Z,522.1
2022-10-19T04:48:37.625Z,522.5
2022-10-19T04:49:40.092Z,522.8
2022-10-19T04:50:42.008Z,522.4
2022-10-19T04:51:44.191Z,522.6
2022-10-19T04:52:46.135Z,522.8
2022-10-19T04:53:48.609Z,522.4
2022-10-19T04:54:51.084Z,522.6
2022-10-19T04:55:53.575Z,522.7
2022-10-19T04:56:55.766Z,522.5
2022-10-19T04:57:58.321Z,522.6
2022-10-19T04:59:00.801Z,522.9
2022-10-19T05:00:03.270Z,522.5
2022-10-19T05:01:05.968Z,522.6
2022-10-19T05:02:08.164Z,522.5
2022-10-19T05:03:10.371Z,522.7
2022-10-19T05:04:12.855Z,523
2022-10-19T05:05:15.045Z,522.6
2022-10-19T05:06:16.964Z,522.8
2022-10-19T05:07:19.166Z,522.6
2022-10-19T05:08:21.360Z,522.9
2022-10-19T05:09:23.299Z,522.9
2022-10-19T05:10:25.229Z,522.8
2022-10-19T05:11:27.448Z,523.1
2022-10-19T05:12:29.656Z,522.8
2022-10-19T05:13:32.285Z,523.1
2022-10-19T05:15:42.459Z,523.3
2022-10-19T05:16:44.662Z,523
2022-10-19T05:17:46.861Z,522.8
2022-10-19T05:18:49.331Z,522.8
2022-10-19T05:19:51.801Z,523.2
2022-10-19T05:20:53.993Z,523.1
2022-10-19T05:21:56.183Z,523.5
2022-10-19T05:22:59.107Z,523.6
2022-10-19T05:24:02.089Z,523.6
2022-10-19T05:25:04.555Z,523.9
2022-10-19T05:26:07.034Z,523.3
2022-10-19T05:27:09.518Z,523.7
2022-10-19T05:28:11.436Z,523.7
2022-10-19T05:29:13.898Z,523.6
2022-10-19T05:30:16.097Z,523.6
2022-10-19T05:31:18.570Z,523.4
2022-10-19T05:32:21.047Z,523.6
2022-10-19T05:33:23.247Z,523.7
2022-10-19T05:34:25.444Z,523.4
2022-10-19T05:35:27.626Z,523.5
2022-10-19T05:36:30.108Z,523.3
2022-10-19T05:37:34.047Z,523.4
2022-10-19T05:38:36.425Z,523.5
2022-10-19T05:39:38.634Z,523.5
2022-10-19T05:40:40.849Z,523.6
2022-10-19T05:41:43.045Z,523.6
2022-10-19T05:42:45.535Z,523.2
2022-10-19T05:43:47.445Z,523.5
2022-10-19T05:44:49.999Z,523.8
2022-10-19T05:45:52.469Z,523.6
2022-10-19T05:46:54.715Z,523.8
2022-10-19T05:47:57.183Z,523.3
2022-10-19T05:48:59.102Z,523.6
2022-10-19T05:50:01.305Z,523.4
2022-10-19T05:51:03.485Z,523.3
2022-10-19T05:52:05.392Z,523.3
2022-10-19T05:53:07.589Z,523.4
2022-10-19T05:54:09.226Z,523.1
2022-10-19T05:55:11.702Z,523
2022-10-19T05:56:14.186Z,523.5
2022-10-19T05:57:16.719Z,523.7
2022-10-19T05:58:18.928Z,523.5
2022-10-19T05:59:20.898Z,523.6
2022-10-19T06:00:23.168Z,523.3
2022-10-19T06:01:25.787Z,523.5
2022-10-19T06:02:28.032Z,523.8
2022-10-19T06:03:30.528Z,523.4
2022-10-19T06:04:32.730Z,523.5
2022-10-19T06:05:35.247Z,523.2
2022-10-19T06:06:37.434Z,523.4
2022-10-19T06:07:39.917Z,523.4
2022-10-19T06:08:42.409Z,523.1
2022-10-19T06:09:44.597Z,523.3
2022-10-19T06:10:46.255Z,522.9
2022-10-19T06:11:48.454Z,522.7
2022-10-19T06:12:50.669Z,522.7
2022-10-19T06:13:53.161Z,522.6
2022-10-19T06:14:55.664Z,522.8
2022-10-19T06:15:58.225Z,522.5
2022-10-19T06:17:00.434Z,522.7
2022-10-19T06:18:02.657Z,522.4
2022-10-19T06:19:04.603Z,522.5
2022-10-19T06:20:06.772Z,522.8
2022-10-19T06:21:09.255Z,522.5
2022-10-19T06:22:11.475Z,522.6
2022-10-19T06:23:13.698Z,522.7
2022-10-19T06:24:16.179Z,522.4
2022-10-19T06:26:23.362Z,521.9
2022-10-19T06:27:26.001Z,522
2022-10-19T06:28:27.970Z,522.2
2022-10-19T06:29:29.923Z,521.9
2022-10-19T06:30:32.809Z,522.6
2022-10-19T06:31:35.387Z,522.4
2022-10-19T06:32:37.301Z,522.1
2022-10-19T06:33:39.977Z,521.9
2022-10-19T06:34:42.227Z,521.9
2022-10-19T06:35:44.698Z,522
2022-10-19T06:36:47.181Z,521.8
2022-10-19T06:37:49.388Z,521.6
2022-10-19T06:38:52.135Z,521.6
2022-10-19T06:39:54.545Z,521.4
2022-10-19T06:40:57.041Z,521.3
2022-10-19T06:41:59.517Z,521.2
2022-10-19T06:43:01.158Z,521.3
2022-10-19T06:44:03.094Z,521.2
2022-10-19T06:45:05.607Z,521.2
2022-10-19T06:46:08.100Z,521
2022-10-19T06:47:10.669Z,521
2022-10-19T06:48:12.594Z,521.2
2022-10-19T06:49:15.060Z,520.7
2022-10-19T06:50:17.243Z,520.4
2022-10-19T06:51:19.724Z,520.1
2022-10-19T06:52:21.920Z,519.9
2022-10-19T06:53:24.132Z,519.9
2022-10-19T06:54:26.600Z,519.6
2022-10-19T06:55:28.527Z,520.1
2022-10-19T06:56:31.005Z,519.7
2022-10-19T06:57:34.963Z,520.3
2022-10-19T06:58:37.740Z,520.1
2022-10-19T06:59:39.958Z,520.3
2022-10-19T07:00:42.400Z,520.3
2022-10-19T07:01:44.768Z,519.9
2022-10-19T07:02:47.333Z,520.1
2022-10-19T07:03:49.573Z,520.2
2022-10-19T07:04:51.502Z,519.9
2022-10-19T07:05:53.706Z,520
2022-10-19T07:06:56.204Z,520.1
2022-10-19T07:07:58.738Z,520.1
2022-10-19T07:09:00.414Z,520.2
2022-10-19T07:10:02.905Z,520.3
2022-10-19T07:11:05.373Z,519.8
2022-10-19T07:12:07.863Z,519.8
2022-10-19T07:13:10.902Z,519.8
2022-10-19T07:14:13.417Z,520
2022-10-19T07:15:15.344Z,520.2
2022-10-19T07:17:22.811Z,520
2022-10-19T07:18:25.370Z,519.8
2022-10-19T07:19:27.835Z,519.7
2022-10-19T07:20:30.032Z,520.1
2022-10-19T07:21:32.517Z,519.8
2022-10-19T07:22:34.997Z,520.4
2022-10-19T07:23:36.901Z,520
2022-10-19T07:24:39.376Z,520.3
2022-10-19T07:25:41.575Z,520.3
2022-10-19T07:26:44.058Z,520
2022-10-19T07:27:46.590Z,520
2022-10-19T07:28:48.784Z,520
2022-10-19T07:29:51.258Z,520
2022-10-19T07:30:52.906Z,519.8
2022-10-19T07:31:54.845Z,519.8
2022-10-19T07:32:57.321Z,520.3
2022-10-19T07:33:59.618Z,520.2
2022-10-19T07:35:01.832Z,520.2
2022-10-19T07:36:03.759Z,520.4
2022-10-19T07:37:05.395Z,520.2
2022-10-19T07:38:07.610Z,520.7
2022-10-19T07:39:10.086Z,520.4
2022-10-19T07:40:12.571Z,520.2
2022-10-19T07:41:15.068Z,520.4
2022-10-19T07:42:17.410Z,520.9
2022-10-19T07:43:19.895Z,520.5
2022-10-19T07:44:22.383Z,520.5
2022-10-19T07:45:24.564Z,520.8
2022-10-19T07:46:27.102Z,520.8
2022-10-19T07:47:29.049Z,520.5
2022-10-19T07:48:31.541Z,520.4
2022-10-19T07:49:33.848Z,520.5
2022-10-19T07:50:36.337Z,520.1
2022-10-19T07:51:38.632Z,520.5
2022-10-19T07:52:42.610Z,520.1
2022-10-19T07:53:45.131Z,519.8
2022-10-19T07:54:47.340Z,520.3
2022-10-19T07:55:49.810Z,520.3
2022-10-19T07:56:52.295Z,520.4
2022-10-19T07:57:54.487Z,520.7
2022-10-19T07:58:56.966Z,520.5
2022-10-19T07:59:59.495Z,520.7
2022-10-19T08:01:01.693Z,520.7
2022-10-19T08:02:04.079Z,520
2022-10-19T08:05:19.120Z,519.9
2022-10-19T08:06:21.607Z,520.2
2022-10-19T08:07:23.811Z,520.4
2022-10-19T08:08:26.006Z,520.2
2022-10-19T08:10:33.499Z,520.4
2022-10-19T08:11:35.400Z,520.3
2022-10-19T08:12:38.172Z,519.9
2022-10-19T08:13:40.365Z,520.1
2022-10-19T08:14:42.668Z,520
2022-10-19T08:15:45.142Z,520
2022-10-19T08:16:47.640Z,519.9
2022-10-19T08:17:49.857Z,520.2
2022-10-19T08:18:52.375Z,519.9
2022-10-19T08:19:53.454Z,519.5
2022-10-19T08:20:56.048Z,519.9
2022-10-19T08:21:58.535Z,519.5
2022-10-19T08:23:00.950Z,519.2
2022-10-19T08:24:03.159Z,519.3
2022-10-19T08:25:05.357Z,519.4
2022-10-19T08:26:07.585Z,519.3
2022-10-19T08:27:10.220Z,519.3
2022-10-19T08:28:12.694Z,519.2
2022-10-19T08:29:14.906Z,519.2
2022-10-19T08:30:16.812Z,519.2
2022-10-19T08:31:18.908Z,519.1
2022-10-19T08:32:21.091Z,519.3
2022-10-19T08:33:23.301Z,519.3
2022-10-19T08:34:25.527Z,519.3
2022-10-19T08:35:27.743Z,519.4
2022-10-19T08:36:30.597Z,519.9
2022-10-19T08:38:37.852Z,520
2022-10-19T08:39:39.775Z,520.1
2022-10-19T08:40:41.717Z,520.2
2022-10-19T08:41:43.835Z,520.4
2022-10-19T08:42:45.784Z,520.8
2022-10-19T08:43:48.272Z,520.7
2022-10-19T08:44:50.783Z,520.5
2022-10-19T08:45:52.699Z,520.8
2022-10-19T08:46:55.171Z,520.5
2022-10-19T08:47:57.644Z,520.5
2022-10-19T08:49:00.127Z,520.5
2022-10-19T08:50:02.170Z,520
2022-10-19T08:51:04.684Z,520.3
2022-10-19T08:52:07.294Z,520.5
2022-10-19T08:53:09.529Z,520.6
2022-10-19T08:54:11.472Z,520.8
2022-10-19T08:57:23.932Z,520.4
2022-10-19T08:58:26.132Z,520.6
2022-10-19T08:59:28.332Z,520.6
2022-10-19T09:00:31.107Z,520.2
2022-10-19T09:02:38.641Z,520.9
2022-10-19T09:04:45.840Z,520.8
2022-10-19T09:05:48.331Z,520.9
2022-10-19T09:06:50.982Z,520.4
2022-10-19T09:07:53.258Z,521.2
2022-10-19T09:08:55.949Z,520.8
2022-10-19T09:09:58.488Z,520.8
2022-10-19T09:11:00.423Z,520.9
2022-10-19T09:12:02.634Z,521
2022-10-19T09:13:05.113Z,520.7
2022-10-19T09:14:08.372Z,520.9
2022-10-19T09:15:10.333Z,520.9
2022-10-19T09:16:12.541Z,520.7
2022-10-19T09:17:15.017Z,520.8
2022-10-19T09:18:17.195Z,520.8
2022-10-19T09:19:19.413Z,520.9
2022-10-19T09:20:22.035Z,521
2022-10-19T09:22:29.503Z,521
2022-10-19T09:23:32.088Z,521
2022-10-19T09:24:34.573Z,520.5
2022-10-19T09:25:36.776Z,520.2
2022-10-19T09:26:39.282Z,520.4
2022-10-19T09:27:41.205Z,520.5
2022-10-19T09:28:43.712Z,520.8
2022-10-19T09:29:45.913Z,520.4
2022-10-19T09:30:48.401Z,520.7
2022-10-19T09:31:50.872Z,520.9
2022-10-19T09:32:52.830Z,520.9
2022-10-19T09:33:54.746Z,520.9
2022-10-19T09:34:56.959Z,521.1
2022-10-19T09:35:59.434Z,521
2022-10-19T09:37:02.097Z,520.9
2022-10-19T09:38:04.342Z,520.6
2022-10-19T09:39:06.603Z,520.9
2022-10-19T09:40:09.099Z,520.6
2022-10-19T09:41:11.027Z,520.4
2022-10-19T09:42:13.498Z,520
2022-10-19T09:43:15.687Z,520
2022-10-19T09:44:17.340Z,520.2
2022-10-19T09:45:19.827Z,520.2
2022-10-19T09:46:22.605Z,520.1
2022-10-19T09:47:25.097Z,519.8
2022-10-19T09:48:27.054Z,519.8
2022-10-19T09:49:29.563Z,519.8
2022-10-19T09:50:32.052Z,519.9
2022-10-19T09:51:34.249Z,520
2022-10-19T09:52:36.467Z,520
2022-10-19T09:53:38.674Z,520.3
2022-10-19T09:54:40.973Z,519.9
2022-10-19T09:55:43.810Z,520.2
2022-10-19T09:56:46.322Z,520.5
2022-10-19T09:57:48.803Z,520.2
2022-10-19T09:58:51.007Z,520.2
2022-10-19T09:59:53.222Z,520.2
2022-10-19T10:00:55.696Z,520.5
2022-10-19T10:01:58.770Z,520.4
2022-10-19T10:03:01.332Z,520.4
2022-10-19T10:04:03.262Z,520.3
2022-10-19T10:05:05.823Z,520.2
2022-10-19T10:06:08.298Z,519.9
2022-10-19T10:07:10.779Z,520.1
2022-10-19T10:08:13.049Z,519.9
2022-10-19T10:09:15.240Z,519.8
2022-10-19T10:10:17.981Z,519.6
2022-10-19T10:11:20.451Z,520.1
2022-10-19T10:15:00.614Z,520.2
2022-10-19T10:16:02.816Z,519.7
2022-10-19T10:17:05.598Z,519.9
2022-10-19T10:18:07.795Z,519.8
2022-10-19T10:20:39.619Z,519.5
2022-10-19T10:21:41.874Z,520
2022-10-19T10:22:44.078Z,519.8
2022-10-19T10:23:46.570Z,519.9
2022-10-19T10:24:48.472Z,519.9
2022-10-19T10:25:50.807Z,520.4
2022-10-19T10:26:52.741Z,520.5
2022-10-19T10:27:54.746Z,520.9
2022-10-19T10:30:02.472Z,521
2022-10-19T10:31:04.941Z,521.2
2022-10-19T10:32:07.413Z,521.1
2022-10-19T10:35:19.601Z,521.2
2022-10-19T10:36:21.521Z,521.4
2022-10-19T10:37:24.024Z,521.4
2022-10-19T10:38:26.216Z,521.4
2022-10-19T10:39:28.719Z,521.9
2022-10-19T10:40:31.190Z,521.7
2022-10-19T10:41:33.761Z,521.6
2022-10-19T10:42:38.023Z,522
2022-10-19T10:43:40.806Z,521.8
2022-10-19T10:44:43.290Z,521.9
2022-10-19T10:45:45.487Z,521.6
2022-10-19T10:46:47.968Z,521.5
2022-10-19T10:47:50.176Z,521.8
2022-10-19T10:49:56.813Z,521.7
2022-10-19T10:50:59.294Z,521.9
2022-10-19T10:52:01.773Z,522
2022-10-19T10:53:04.027Z,522.1
2022-10-19T10:54:06.506Z,522.3
2022-10-19T10:55:08.440Z,522.2
2022-10-19T10:56:10.375Z,522.5
2022-10-19T10:57:13.634Z,522.3
2022-10-19T10:58:16.098Z,522.2
2022-10-19T10:59:18.015Z,522.6
2022-10-19T11:00:19.962Z,522.9
2022-10-19T11:01:22.760Z,522.9
2022-10-19T11:03:28.393Z,522.9
2022-10-19T11:04:30.984Z,523.1
2022-10-19T11:05:33.198Z,523
2022-10-19T11:06:35.795Z,523
2022-10-19T11:07:40.253Z,523.3
2022-10-19T11:08:43.084Z,523.1
2022-10-19T11:09:44.785Z,523.3
2022-10-19T11:10:46.796Z,523
2022-10-19T11:11:48.985Z,523.1
2022-10-19T11:12:51.605Z,523.4
2022-10-19T11:13:54.078Z,523.7
2022-10-19T11:14:56.555Z,523.5
2022-10-19T11:15:59.032Z,524.3
2022-10-19T11:17:01.516Z,524.1
2022-10-19T11:18:04.007Z,524.1
2022-10-19T11:19:07.159Z,524.3
2022-10-19T11:20:09.667Z,524.4
2022-10-19T11:21:11.590Z,524.3
2022-10-19T11:22:13.791Z,524.2
2022-10-19T11:23:15.439Z,524.3
2022-10-19T11:24:18.143Z,524.4
2022-10-19T11:25:20.636Z,524.1
2022-10-19T11:26:23.143Z,524.2
2022-10-19T11:27:25.662Z,524.5
2022-10-19T11:28:28.237Z,524.6
2022-10-19T11:29:30.449Z,524.8
2022-10-19T11:30:32.370Z,524.6
2022-10-19T11:31:34.308Z,525.1
2022-10-19T11:32:38.516Z,524.9
2022-10-19T11:34:43.786Z,525.6
2022-10-19T11:35:45.981Z,525.2
2022-10-19T11:36:47.923Z,525.3
2022-10-19T11:38:55.118Z,525.4
2022-10-19T11:39:57.638Z,525.6
2022-10-19T11:42:05.124Z,525.8
2022-10-19T11:43:07.600Z,525.8
2022-10-19T11:44:10.164Z,526
2022-10-19T11:45:12.667Z,526.1
2022-10-19T11:46:14.874Z,526.4
2022-10-19T11:47:17.348Z,526.4
2022-10-19T11:48:19.549Z,526.8
2022-10-19T11:49:21.776Z,526.8
2022-10-19T11:51:31.701Z,527.7
2022-10-19T11:52:36.013Z,527.5
2022-10-19T11:53:38.130Z,527.7
2022-10-19T11:54:40.029Z,527.6
2022-10-19T11:55:42.520Z,527.4
2022-10-19T11:57:50.004Z,527.8
2022-10-19T11:58:51.931Z,527.9
2022-10-19T12:01:00.960Z,528.2
2022-10-19T12:02:03.762Z,528
2022-10-19T12:03:06.267Z,528.2
2022-10-19T12:04:08.173Z,528.4
2022-10-19T12:05:10.374Z,528.6
2022-10-19T12:06:12.290Z,528.4
2022-10-19T12:07:14.793Z,528.6
2022-10-19T12:09:19.179Z,528.8
2022-10-19T12:10:21.156Z,529
2022-10-19T12:11:23.630Z,528.9
2022-10-19T12:12:25.819Z,529
2022-10-19T12:13:28.043Z,529
2022-10-19T12:14:30.244Z,528.9
2022-10-19T12:15:32.778Z,529.2
2022-10-19T12:16:35.280Z,529.8
2022-10-19T12:17:39.019Z,529.2
2022-10-19T12:18:40.968Z,529.2
2022-10-19T12:19:42.904Z,529.7
2022-10-19T12:20:45.379Z,529.6
2022-10-19T12:21:47.865Z,529.5
2022-10-19T12:22:50.039Z,530.3
2022-10-19T12:23:51.697Z,530.1
2022-10-19T12:24:53.331Z,530.3
2022-10-19T12:25:55.814Z,530.9
2022-10-19T12:26:58.010Z,530.8
2022-10-19T12:28:00.505Z,531.4
2022-10-19T12:29:02.703Z,531.1
2022-10-19T12:30:04.645Z,531.4
2022-10-19T12:31:07.190Z,531.5
2022-10-19T12:32:08.869Z,531.5
2022-10-19T12:33:11.340Z,531.8
2022-10-19T12:34:13.021Z,531.7
2022-10-19T12:35:15.023Z,532.3
2022-10-19T12:36:16.959Z,532.1
2022-10-19T12:37:18.611Z,532
2022-10-19T12:38:21.091Z,532.1
2022-10-19T12:39:23.577Z,532.7
2022-10-19T12:40:25.783Z,532.3
2022-10-19T12:41:28.199Z,532.4
2022-10-19T12:42:30.674Z,532.9
2022-10-19T12:43:32.890Z,532.7
2022-10-19T12:44:35.403Z,532.7
2022-10-19T12:45:37.600Z,533.1
2022-10-19T12:46:40.164Z,532.9
2022-10-19T12:47:42.666Z,533.2
2022-10-19T12:48:44.855Z,533.5
2022-10-19T12:49:47.255Z,533.3
2022-10-19T12:50:49.819Z,533.1
2022-10-19T12:51:52.013Z,533.6
2022-10-19T12:52:53.679Z,533.8
2022-10-19T12:53:55.590Z,534
2022-10-19T12:54:57.495Z,533.9
2022-10-19T12:55:59.428Z,533.7
2022-10-19T12:57:01.745Z,533.9
2022-10-19T12:58:04.234Z,533.8
2022-10-19T12:59:06.862Z,533.7
2022-10-19T13:00:09.090Z,534
2022-10-19T13:01:11.705Z,533.9
2022-10-19T13:02:14.269Z,534.4
2022-10-19T13:03:16.771Z,534.5
2022-10-19T13:04:18.972Z,534.4
2022-10-19T13:05:20.897Z,534.5
2022-10-19T13:06:22.546Z,535
2022-10-19T13:07:24.721Z,535
2022-10-19T13:08:27.514Z,534.9
2022-10-19T13:09:30.022Z,535.1
2022-10-19T13:10:32.241Z,535.4
2022-10-19T13:12:39.876Z,535.3
2022-10-19T13:13:42.825Z,535.5
2022-10-19T13:14:45.269Z,535.6
2022-10-19T13:15:47.518Z,535.7
2022-10-19T13:16:50.002Z,535.5
2022-10-19T13:17:52.642Z,535.8
2022-10-19T13:18:54.586Z,535.5
2022-10-19T13:19:57.074Z,535.6
2022-10-19T13:22:05.175Z,536
2022-10-19T13:23:07.686Z,535.8
2022-10-19T13:24:10.223Z,536.1
2022-10-19T13:25:12.788Z,536.2
2022-10-19T13:26:14.735Z,536.4
2022-10-19T13:27:16.917Z,536.3
2022-10-19T13:28:19.137Z,536.7
2022-10-19T13:29:21.540Z,536.9
2022-10-19T13:30:24.060Z,537.1
2022-10-19T13:31:26.630Z,536.9
2022-10-19T13:32:29.111Z,537
2022-10-19T13:33:31.706Z,537.2
2022-10-19T13:34:33.967Z,537
2022-10-19T13:35:36.453Z,537.1
2022-10-19T13:36:38.670Z,537.4
2022-10-19T13:37:41.149Z,537
2022-10-19T13:38:43.391Z,536.8
2022-10-19T13:39:45.298Z,537.2
2022-10-19T13:40:47.545Z,537.3
2022-10-19T13:41:50.027Z,537.4
2022-10-19T13:42:51.482Z,537.3
2022-10-19T13:43:53.683Z,537.1
2022-10-19T13:44:56.176Z,537.3
2022-10-19T13:45:58.374Z,537.2
2022-10-19T13:47:00.895Z,537.5
2022-10-19T13:48:03.104Z,537.3
2022-10-19T13:49:05.668Z,537.6
2022-10-19T13:50:08.311Z,537.6
2022-10-19T13:51:10.508Z,537.6
2022-10-19T13:52:12.416Z,537.8
2022-10-19T13:53:14.609Z,537.8
2022-10-19T13:54:16.815Z,538.4
2022-10-19T13:55:19.025Z,538.6
2022-10-19T13:56:21.222Z,538.4
2022-10-19T13:57:23.421Z,538.6
2022-10-19T13:58:25.913Z,538.8
2022-10-19T13:59:28.136Z,539.3
2022-10-19T14:00:30.244Z,539.4
2022-10-19T14:01:32.777Z,539.1
2022-10-19T14:02:37.354Z,539.5
2022-10-19T14:03:39.656Z,539.1
2022-10-19T14:04:41.893Z,539.4
2022-10-19T14:05:43.971Z,539.2
2022-10-19T14:06:45.885Z,539.2
2022-10-19T14:07:48.083Z,539.4
2022-10-19T14:08:50.105Z,539.5
2022-10-19T14:09:52.614Z,539.5